createdAt,value
2023-07-15T00:00:27.778Z,99243.84
2023-07-15T00:01:38.672Z,99235.75
2023-07-15T00:02:20.633Z,99232.25
2023-07-15T00:03:02.493Z,99218.94
2023-07-15T00:03:44.223Z,99240.84
2023-07-15T00:04:26.722Z,99241.13
2023-07-15T00:05:18.589Z,99244.53
2023-07-15T00:06:00.398Z,99233.44
2023-07-15T00:06:42.221Z,99228.81
2023-07-15T00:07:23.893Z,99247.38
2023-07-15T00:08:07.306Z,99229.81
2023-07-15T00:08:49.661Z,99239.78
2023-07-15T00:09:31.371Z,99231.16
2023-07-15T00:10:13.174Z,99224.34
2023-07-15T00:10:55.514Z,99234.69
2023-07-15T00:11:43.003Z,99221.72
2023-07-15T00:12:24.847Z,99209.28
2023-07-15T00:13:11.791Z,99217.16
2023-07-15T00:13:53.924Z,99243.13
2023-07-15T00:14:35.721Z,99232.50
2023-07-15T00:15:18.813Z,99240.94
2023-07-15T00:16:00.738Z,99244.94
2023-07-15T00:16:42.981Z,99231.41
2023-07-15T00:17:24.990Z,99243.81
2023-07-15T00:18:06.897Z,99241.34
2023-07-15T00:18:48.976Z,99238.66
2023-07-15T00:19:30.884Z,99238.69
2023-07-15T00:20:15.905Z,99207.88
2023-07-15T00:20:57.806Z,99230.38
2023-07-15T00:21:39.643Z,99209.28
2023-07-15T00:22:22.142Z,99224.97
2023-07-15T00:23:24.904Z,99237.69
2023-07-15T00:24:08.565Z,99240.16
2023-07-15T00:24:50.204Z,99241.22
2023-07-15T00:25:32.244Z,99243.91
2023-07-15T00:26:14.104Z,99242.84
2023-07-15T00:26:59.814Z,99241.53
2023-07-15T00:27:43.661Z,99205.34
2023-07-15T00:28:26.515Z,99240.97
2023-07-15T00:29:08.657Z,99203.91
2023-07-15T00:29:50.315Z,99216.00
2023-07-15T00:30:32.627Z,99220.59
2023-07-15T00:31:16.124Z,99239.78
2023-07-15T00:31:58.353Z,99221.09
2023-07-15T00:32:40.317Z,99221.41
2023-07-15T00:33:24.276Z,99234.09
2023-07-15T00:34:06.445Z,99221.38
2023-07-15T00:34:48.187Z,99235.91
2023-07-15T00:35:33.655Z,99235.34
2023-07-15T00:36:16.774Z,99226.69
2023-07-15T00:36:58.578Z,99209.41
2023-07-15T00:37:40.372Z,99215.06
2023-07-15T00:38:22.040Z,99236.16
2023-07-15T00:39:06.072Z,99220.44
2023-07-15T00:39:47.888Z,99225.00
2023-07-15T00:40:35.131Z,99218.78
2023-07-15T00:41:30.200Z,99232.28
2023-07-15T00:42:40.876Z,99234.91
2023-07-15T00:43:57.415Z,99234.34
2023-07-15T00:44:38.958Z,99230.66
2023-07-15T00:45:20.600Z,99241.94
2023-07-15T00:46:20.949Z,99233.59
2023-07-15T00:47:23.039Z,99235.97
2023-07-15T00:48:27.779Z,99216.94
2023-07-15T00:49:21.274Z,99241.25
2023-07-15T00:50:04.064Z,99195.38
2023-07-15T00:50:45.787Z,99232.78
2023-07-15T00:51:29.251Z,99239.78
2023-07-15T00:52:17.200Z,99238.63
2023-07-15T00:52:59.611Z,99216.13
2023-07-15T00:53:41.399Z,99237.16
2023-07-15T00:54:23.628Z,99239.03
2023-07-15T00:55:06.438Z,99228.22
2023-07-15T00:55:48.281Z,99233.34
2023-07-15T00:56:32.010Z,99233.47
2023-07-15T00:57:16.745Z,99232.91
2023-07-15T00:57:58.873Z,99212.78
2023-07-15T00:58:40.643Z,99201.44
2023-07-15T00:59:22.542Z,99223.06
2023-07-15T01:00:06.317Z,99220.38
2023-07-15T01:00:48.098Z,99236.16
2023-07-15T01:01:30.464Z,99221.06
2023-07-15T01:02:14.119Z,99238.91
2023-07-15T01:02:55.969Z,99238.91
2023-07-15T01:03:46.084Z,99235.16
2023-07-15T01:04:28.297Z,99235.97
2023-07-15T01:05:11.646Z,99217.38
2023-07-15T01:05:53.415Z,99230.63
2023-07-15T01:06:36.431Z,99230.13
2023-07-15T01:07:18.496Z,99237.09
2023-07-15T01:08:00.276Z,99215.50
2023-07-15T01:08:42.157Z,99234.16
2023-07-15T01:09:25.632Z,99234.03
2023-07-15T01:10:07.766Z,99232.13
2023-07-15T01:10:50.056Z,99239.28
2023-07-15T01:11:33.861Z,99225.16
2023-07-15T01:12:15.780Z,99229.09
2023-07-15T01:12:57.537Z,99199.53
2023-07-15T01:13:39.340Z,99221.78
2023-07-15T01:14:21.284Z,99233.34
2023-07-15T01:15:03.402Z,99230.66
2023-07-15T01:15:45.452Z,99209.88
2023-07-15T01:16:29.608Z,99221.56
2023-07-15T01:17:11.474Z,99228.78
2023-07-15T01:17:53.632Z,99231.31
2023-07-15T01:18:37.123Z,99219.34
2023-07-15T01:19:19.823Z,99213.69
2023-07-15T01:20:01.889Z,99224.22
2023-07-15T01:20:43.630Z,99230.97
2023-07-15T01:21:32.468Z,99224.06
2023-07-15T01:22:14.342Z,99223.56
2023-07-15T01:22:56.166Z,99204.06
2023-07-15T01:23:39.233Z,99201.97
2023-07-15T01:24:22.635Z,99232.56
2023-07-15T01:25:06.955Z,99236.38
2023-07-15T01:26:42.416Z,99233.44
2023-07-15T01:27:24.196Z,99220.63
2023-07-15T01:28:07.556Z,99237.53
2023-07-15T01:28:49.300Z,99224.22
2023-07-15T01:29:30.992Z,99213.19
2023-07-15T01:30:12.739Z,99218.63
2023-07-15T01:30:54.441Z,99234.59
2023-07-15T01:31:37.497Z,99229.72
2023-07-15T01:32:19.248Z,99234.59
2023-07-15T01:33:01.008Z,99225.13
2023-07-15T01:33:42.849Z,99237.53
2023-07-15T01:34:25.736Z,99218.88
2023-07-15T01:35:08.492Z,99223.41
2023-07-15T01:35:51.109Z,99216.75
2023-07-15T01:36:32.716Z,99236.25
2023-07-15T01:37:14.435Z,99228.75
2023-07-15T01:37:56.101Z,99230.94
2023-07-15T01:38:38.694Z,99236.84
2023-07-15T01:39:20.404Z,99213.16
2023-07-15T01:40:04.524Z,99173.72
2023-07-15T01:40:46.181Z,99217.81
2023-07-15T01:41:27.893Z,99205.41
2023-07-15T01:42:09.520Z,99175.13
2023-07-15T01:42:51.286Z,99223.59
2023-07-15T01:43:33.306Z,99211.16
2023-07-15T01:44:17.429Z,99223.34
2023-07-15T01:44:59.149Z,99194.50
2023-07-15T01:45:41.201Z,99225.88
2023-07-15T01:46:22.965Z,99216.66
2023-07-15T01:47:04.934Z,99211.72
2023-07-15T01:47:47.694Z,99209.47
2023-07-15T01:48:29.659Z,99226.53
2023-07-15T01:49:11.373Z,99232.06
2023-07-15T01:49:53.083Z,99238.44
2023-07-15T01:50:36.912Z,99235.34
2023-07-15T01:51:18.625Z,99204.19
2023-07-15T01:52:00.417Z,99230.09
2023-07-15T01:52:42.163Z,99209.50
2023-07-15T01:53:23.817Z,99219.78
2023-07-15T01:54:07.088Z,99225.53
2023-07-15T01:54:48.836Z,99223.19
2023-07-15T01:55:30.650Z,99233.19
2023-07-15T01:56:12.661Z,99208.91
2023-07-15T01:56:55.544Z,99231.88
2023-07-15T01:57:37.288Z,99206.50
2023-07-15T01:58:19.083Z,99223.06
2023-07-15T01:59:00.849Z,99203.59
2023-07-15T01:59:43.028Z,99226.06
2023-07-15T02:00:24.804Z,99223.63
2023-07-15T02:01:06.486Z,99218.75
2023-07-15T02:01:48.474Z,99211.72
2023-07-15T02:02:30.485Z,99224.88
2023-07-15T02:03:12.336Z,99207.03
2023-07-15T02:03:54.202Z,99217.00
2023-07-15T02:04:35.934Z,99215.06
2023-07-15T02:05:17.705Z,99215.56
2023-07-15T02:05:59.504Z,99220.84
2023-07-15T02:06:42.864Z,99213.81
2023-07-15T02:07:24.589Z,99204.84
2023-07-15T02:08:06.488Z,99205.19
2023-07-15T02:08:48.366Z,99208.69
2023-07-15T02:09:30.761Z,99210.31
2023-07-15T02:10:12.546Z,99200.63
2023-07-15T02:10:54.205Z,99204.69
2023-07-15T02:11:36.022Z,99193.88
2023-07-15T02:12:17.854Z,99200.88
2023-07-15T02:13:00.968Z,99205.91
2023-07-15T02:13:42.678Z,99183.19
2023-07-15T02:14:24.486Z,99193.06
2023-07-15T02:15:07.315Z,99194.22
2023-07-15T02:15:49.421Z,99200.38
2023-07-15T02:16:31.278Z,99175.53
2023-07-15T02:17:15.083Z,99175.03
2023-07-15T02:17:56.782Z,99189.97
2023-07-15T02:18:38.557Z,99190.28
2023-07-15T02:19:20.326Z,99176.75
2023-07-15T02:20:02.330Z,99191.28
2023-07-15T02:20:45.505Z,99182.22
2023-07-15T02:21:28.198Z,99192.44
2023-07-15T02:22:09.830Z,99172.63
2023-07-15T02:22:51.516Z,99182.38
2023-07-15T02:23:34.571Z,99185.56
2023-07-15T02:24:16.408Z,99176.84
2023-07-15T02:24:58.063Z,99198.44
2023-07-15T02:25:39.816Z,99187.97
2023-07-15T02:26:21.600Z,99169.25
2023-07-15T02:27:04.497Z,99185.84
2023-07-15T02:27:46.171Z,99190.97
2023-07-15T02:28:29.019Z,99182.44
2023-07-15T02:29:10.863Z,99172.16
2023-07-15T02:29:53.091Z,99157.84
2023-07-15T02:30:35.872Z,99186.81
2023-07-15T02:31:17.666Z,99178.00
2023-07-15T02:31:59.908Z,99185.59
2023-07-15T02:32:43.281Z,99188.03
2023-07-15T02:33:25.679Z,99163.34
2023-07-15T02:34:08.359Z,99186.56
2023-07-15T02:34:50.428Z,99177.66
2023-07-15T02:35:32.094Z,99183.03
2023-07-15T02:36:15.129Z,99165.16
2023-07-15T02:36:57.145Z,99140.31
2023-07-15T02:37:40.078Z,99169.03
2023-07-15T02:38:21.795Z,99180.91
2023-07-15T02:39:07.456Z,99184.00
2023-07-15T02:39:49.113Z,99174.75
2023-07-15T02:40:30.851Z,99177.91
2023-07-15T02:41:13.241Z,99151.66
2023-07-15T02:41:55.145Z,99158.28
2023-07-15T02:42:37.662Z,99174.75
2023-07-15T02:43:20.623Z,99171.81
2023-07-15T02:44:03.725Z,99173.69
2023-07-15T02:44:45.816Z,99168.25
2023-07-15T02:45:28.178Z,99182.16
2023-07-15T02:46:09.903Z,99178.53
2023-07-15T02:46:52.009Z,99177.72
2023-07-15T02:47:34.548Z,99165.47
2023-07-15T02:48:17.013Z,99169.63
2023-07-15T02:48:58.775Z,99176.22
2023-07-15T02:49:40.403Z,99177.34
2023-07-15T02:50:22.211Z,99181.97
2023-07-15T02:51:04.110Z,99167.44
2023-07-15T02:51:46.640Z,99182.88
2023-07-15T02:52:28.351Z,99176.69
2023-07-15T02:53:10.234Z,99181.81
2023-07-15T02:53:52.324Z,99157.53
2023-07-15T02:54:34.277Z,99154.59
2023-07-15T02:55:16.043Z,99171.63
2023-07-15T02:55:58.449Z,99178.47
2023-07-15T02:56:40.206Z,99182.25
2023-07-15T02:57:21.909Z,99179.34
2023-07-15T02:58:04.812Z,99175.03
2023-07-15T02:58:46.499Z,99177.41
2023-07-15T02:59:28.168Z,99174.75
2023-07-15T03:00:14.299Z,99164.66
2023-07-15T03:00:55.950Z,99147.69
2023-07-15T03:01:37.650Z,99177.72
2023-07-15T03:02:19.826Z,99177.78
2023-07-15T03:03:01.628Z,99179.66
2023-07-15T03:03:43.415Z,99183.41
2023-07-15T03:04:25.385Z,99150.06
2023-07-15T03:05:07.428Z,99159.81
2023-07-15T03:05:50.528Z,99185.22
2023-07-15T03:06:34.179Z,99189.25
2023-07-15T03:07:16.895Z,99170.09
2023-07-15T03:07:58.597Z,99187.13
2023-07-15T03:08:40.318Z,99188.53
2023-07-15T03:09:22.824Z,99186.91
2023-07-15T03:10:04.866Z,99186.09
2023-07-15T03:10:46.748Z,99155.97
2023-07-15T03:11:28.492Z,99167.50
2023-07-15T03:12:13.004Z,99188.88
2023-07-15T03:12:54.838Z,99186.91
2023-07-15T03:13:36.538Z,99187.44
2023-07-15T03:14:18.309Z,99190.59
2023-07-15T03:15:00.561Z,99192.38
2023-07-15T03:15:43.950Z,99178.97
2023-07-15T03:16:25.870Z,99190.09
2023-07-15T03:17:07.657Z,99163.88
2023-07-15T03:17:49.448Z,99189.34
2023-07-15T03:18:31.361Z,99181.81
2023-07-15T03:19:13.084Z,99191.31
2023-07-15T03:19:54.830Z,99189.78
2023-07-15T03:20:36.589Z,99175.38
2023-07-15T03:21:18.368Z,99196.81
2023-07-15T03:22:00.457Z,99189.81
2023-07-15T03:22:43.696Z,99197.72
2023-07-15T03:23:25.593Z,99197.19
2023-07-15T03:24:07.229Z,99175.34
2023-07-15T03:24:48.923Z,99171.38
2023-07-15T03:25:30.934Z,99183.78
2023-07-15T03:26:14.751Z,99189.81
2023-07-15T03:26:56.652Z,99164.88
2023-07-15T03:27:38.982Z,99183.88
2023-07-15T03:28:20.666Z,99190.84
2023-07-15T03:29:06.977Z,99170.38
2023-07-15T03:29:50.487Z,99168.94
2023-07-15T03:30:32.369Z,99181.91
2023-07-15T03:31:14.186Z,99184.31
2023-07-15T03:31:55.953Z,99174.78
2023-07-15T03:32:38.541Z,99180.81
2023-07-15T03:33:20.367Z,99178.94
2023-07-15T03:34:02.886Z,99178.13
2023-07-15T03:34:48.863Z,99182.44
2023-07-15T03:35:30.556Z,99159.47
2023-07-15T03:36:13.512Z,99177.88
2023-07-15T03:36:56.083Z,99160.75
2023-07-15T03:37:42.331Z,99180.91
2023-07-15T03:38:24.042Z,99189.44
2023-07-15T03:39:06.260Z,99164.44
2023-07-15T03:39:48.791Z,99169.06
2023-07-15T03:40:32.763Z,99151.16
2023-07-15T03:41:14.939Z,99176.84
2023-07-15T03:41:56.662Z,99159.09
2023-07-15T03:42:39.644Z,99175.94
2023-07-15T03:43:21.361Z,99150.53
2023-07-15T03:44:03.319Z,99164.66
2023-07-15T03:44:45.020Z,99166.47
2023-07-15T03:45:26.730Z,99177.56
2023-07-15T03:46:08.878Z,99185.63
2023-07-15T03:46:56.029Z,99114.56
2023-07-15T03:47:39.115Z,99151.69
2023-07-15T03:48:21.407Z,99179.03
2023-07-15T03:49:03.218Z,99177.72
2023-07-15T03:49:44.889Z,99168.03
2023-07-15T03:50:26.641Z,99174.06
2023-07-15T03:51:08.564Z,99171.72
2023-07-15T03:51:50.852Z,99160.91
2023-07-15T03:52:32.926Z,99170.66
2023-07-15T03:53:14.727Z,99173.56
2023-07-15T03:53:56.462Z,99174.50
2023-07-15T03:54:38.402Z,99175.69
2023-07-15T03:55:20.159Z,99171.94
2023-07-15T03:56:02.302Z,99151.91
2023-07-15T03:56:44.055Z,99158.47
2023-07-15T03:57:26.442Z,99152.59
2023-07-15T03:58:09.898Z,99163.53
2023-07-15T03:58:51.577Z,99156.31
2023-07-15T03:59:33.272Z,99161.22
2023-07-15T04:00:18.410Z,99150.44
2023-07-15T04:01:00.244Z,99130.31
2023-07-15T04:01:42.275Z,99158.34
2023-07-15T04:02:23.996Z,99157.81
2023-07-15T04:03:05.749Z,99154.56
2023-07-15T04:03:47.568Z,99153.19
2023-07-15T04:04:29.345Z,99137.78
2023-07-15T04:05:11.253Z,99131.28
2023-07-15T04:05:52.941Z,99148.06
2023-07-15T04:06:35.036Z,99118.38
2023-07-15T04:07:17.300Z,99146.53
2023-07-15T04:07:58.994Z,99138.41
2023-07-15T04:08:40.756Z,99124.94
2023-07-15T04:09:23.032Z,99145.22
2023-07-15T04:10:05.048Z,99148.97
2023-07-15T04:10:50.024Z,99128.59
2023-07-15T04:11:33.721Z,99124.75
2023-07-15T04:12:15.531Z,99137.56
2023-07-15T04:12:57.267Z,99133.13
2023-07-15T04:13:38.962Z,99147.94
2023-07-15T04:14:20.659Z,99154.16
2023-07-15T04:15:02.461Z,99149.59
2023-07-15T04:15:44.350Z,99108.06
2023-07-15T04:16:26.051Z,99157.50
2023-07-15T04:17:07.758Z,99140.81
2023-07-15T04:17:49.565Z,99133.03
2023-07-15T04:18:32.241Z,99149.50
2023-07-15T04:19:14.074Z,99142.25
2023-07-15T04:19:55.792Z,99143.06
2023-07-15T04:20:37.557Z,99130.09
2023-07-15T04:21:19.237Z,99129.91
2023-07-15T04:22:00.966Z,99132.41
2023-07-15T04:22:42.767Z,99135.91
2023-07-15T04:23:24.564Z,99123.16
2023-07-15T04:24:06.722Z,99132.59
2023-07-15T04:24:48.409Z,99125.31
2023-07-15T04:25:30.286Z,99131.97
2023-07-15T04:26:13.460Z,99127.91
2023-07-15T04:26:55.409Z,99130.84
2023-07-15T04:27:38.501Z,99117.38
2023-07-15T04:28:20.527Z,99127.19
2023-07-15T04:29:03.383Z,99117.25
2023-07-15T04:29:46.140Z,99125.59
2023-07-15T04:30:27.905Z,99126.25
2023-07-15T04:31:09.714Z,99111.13
2023-07-15T04:31:51.573Z,99133.03
2023-07-15T04:32:33.585Z,99145.13
2023-07-15T04:33:16.632Z,99141.16
2023-07-15T04:33:58.383Z,99128.16
2023-07-15T04:34:40.046Z,99142.25
2023-07-15T04:35:21.710Z,99151.69
2023-07-15T04:36:03.780Z,99144.66
2023-07-15T04:36:45.483Z,99132.22
2023-07-15T04:37:27.258Z,99152.19
2023-07-15T04:38:11.128Z,99153.00
2023-07-15T04:38:52.823Z,99128.16
2023-07-15T04:39:34.526Z,99129.28
2023-07-15T04:40:16.989Z,99157.63
2023-07-15T04:40:58.688Z,99125.56
2023-07-15T04:41:40.316Z,99153.94
2023-07-15T04:42:21.988Z,99124.50
2023-07-15T04:43:03.605Z,99128.31
2023-07-15T04:43:45.320Z,99155.63
2023-07-15T04:44:26.937Z,99156.19
2023-07-15T04:45:08.981Z,99140.47
2023-07-15T04:45:51.110Z,99161.31
2023-07-15T04:46:33.564Z,99162.41
2023-07-15T04:47:15.468Z,99159.47
2023-07-15T04:47:57.688Z,99155.44
2023-07-15T04:48:40.030Z,99159.81
2023-07-15T04:49:21.703Z,99159.25
2023-07-15T04:50:03.834Z,99154.22
2023-07-15T04:50:46.862Z,99162.00
2023-07-15T04:51:28.564Z,99152.84
2023-07-15T04:52:10.589Z,99157.75
2023-07-15T04:52:52.219Z,99153.41
2023-07-15T04:53:34.223Z,99159.13
2023-07-15T04:54:16.078Z,99161.56
2023-07-15T04:54:57.773Z,99146.41
2023-07-15T04:55:42.347Z,99150.06
2023-07-15T04:56:24.692Z,99159.50
2023-07-15T04:57:06.774Z,99168.91
2023-07-15T04:57:48.701Z,99156.53
2023-07-15T04:58:30.606Z,99157.66
2023-07-15T04:59:12.379Z,99144.69
2023-07-15T04:59:54.238Z,99161.47
2023-07-15T05:00:37.844Z,99161.22
2023-07-15T05:01:19.742Z,99165.53
2023-07-15T05:02:01.544Z,99144.13
2023-07-15T05:02:43.307Z,99157.72
2023-07-15T05:03:25.394Z,99131.72
2023-07-15T05:04:07.337Z,99161.22
2023-07-15T05:04:48.964Z,99165.53
2023-07-15T05:05:30.727Z,99167.94
2023-07-15T05:06:12.517Z,99160.69
2023-07-15T05:06:54.475Z,99164.19
2023-07-15T05:07:51.458Z,99146.44
2023-07-15T05:08:38.547Z,99154.25
2023-07-15T05:09:20.360Z,99139.69
2023-07-15T05:10:02.063Z,99155.44
2023-07-15T05:10:45.541Z,99147.25
2023-07-15T05:11:27.924Z,99156.84
2023-07-15T05:12:11.460Z,99148.97
2023-07-15T05:12:53.148Z,99151.25
2023-07-15T05:13:34.864Z,99147.84
2023-07-15T05:14:16.524Z,99130.13
2023-07-15T05:14:59.240Z,99126.38
2023-07-15T05:15:41.012Z,99144.50
2023-07-15T05:16:22.860Z,99145.94
2023-07-15T05:17:07.875Z,99141.38
2023-07-15T05:17:49.626Z,99123.03
2023-07-15T05:18:31.524Z,99118.75
2023-07-15T05:19:13.245Z,99139.56
2023-07-15T05:19:55.059Z,99145.50
2023-07-15T05:20:38.486Z,99142.00
2023-07-15T05:21:20.249Z,99139.88
2023-07-15T05:22:02.545Z,99136.13
2023-07-15T05:22:44.189Z,99145.53
2023-07-15T05:23:25.861Z,99143.13
2023-07-15T05:24:07.938Z,99141.56
2023-07-15T05:24:50.585Z,99127.78
2023-07-15T05:25:33.376Z,99144.25
2023-07-15T05:26:15.388Z,99133.22
2023-07-15T05:26:57.140Z,99132.66
2023-07-15T05:27:38.874Z,99109.19
2023-07-15T05:28:20.578Z,99138.28
2023-07-15T05:29:02.306Z,99140.44
2023-07-15T05:29:46.070Z,99137.19
2023-07-15T05:30:28.196Z,99115.59
2023-07-15T05:31:09.954Z,99137.44
2023-07-15T05:31:51.841Z,99135.50
2023-07-15T05:32:33.606Z,99140.09
2023-07-15T05:33:15.292Z,99131.41
2023-07-15T05:33:57.046Z,99147.81
2023-07-15T05:34:38.703Z,99145.13
2023-07-15T05:35:20.409Z,99135.94
2023-07-15T05:36:03.314Z,99135.38
2023-07-15T05:36:45.033Z,99151.75
2023-07-15T05:37:26.713Z,99155.78
2023-07-15T05:38:08.388Z,99156.31
2023-07-15T05:38:50.145Z,99137.41
2023-07-15T05:39:31.906Z,99150.63
2023-07-15T05:40:13.881Z,99147.13
2023-07-15T05:40:56.703Z,99133.88
2023-07-15T05:41:38.407Z,99144.88
2023-07-15T05:42:21.153Z,99161.84
2023-07-15T05:43:02.841Z,99144.31
2023-07-15T05:43:44.642Z,99116.84
2023-07-15T05:44:26.296Z,99138.91
2023-07-15T05:45:08.676Z,99144.81
2023-07-15T05:45:50.475Z,99137.56
2023-07-15T05:46:32.248Z,99152.91
2023-07-15T05:47:14.248Z,99156.16
2023-07-15T05:47:56.049Z,99165.31
2023-07-15T05:48:38.088Z,99145.41
2023-07-15T05:49:19.758Z,99145.94
2023-07-15T05:50:05.662Z,99154.78
2023-07-15T05:50:47.409Z,99152.38
2023-07-15T05:51:29.067Z,99163.72
2023-07-15T05:52:10.798Z,99140.53
2023-07-15T05:52:54.303Z,99146.78
2023-07-15T05:53:36.146Z,99155.63
2023-07-15T05:54:17.824Z,99146.50
2023-07-15T05:54:59.588Z,99145.94
2023-07-15T05:55:41.299Z,99148.09
2023-07-15T05:56:23.126Z,99141.06
2023-07-15T05:57:05.174Z,99144.06
2023-07-15T05:57:46.980Z,99140.81
2023-07-15T05:58:28.758Z,99116.28
2023-07-15T05:59:10.556Z,99132.38
2023-07-15T05:59:52.789Z,99155.00
2023-07-15T06:00:34.538Z,99141.53
2023-07-15T06:01:16.603Z,99135.59
2023-07-15T06:01:58.559Z,99125.63
2023-07-15T06:02:40.354Z,99148.22
2023-07-15T06:03:22.425Z,99134.00
2023-07-15T06:04:07.322Z,99144.50
2023-07-15T06:04:49.256Z,99149.66
2023-07-15T06:05:31.453Z,99127.59
2023-07-15T06:06:14.363Z,99122.22
2023-07-15T06:06:56.247Z,99145.09
2023-07-15T06:07:38.096Z,99142.69
2023-07-15T06:08:19.940Z,99098.53
2023-07-15T06:09:01.821Z,99133.03
2023-07-15T06:09:43.482Z,99147.03
2023-07-15T06:10:25.241Z,99138.44
2023-07-15T06:11:06.926Z,99141.06
2023-07-15T06:11:48.693Z,99148.09
2023-07-15T06:12:31.039Z,99145.69
2023-07-15T06:13:12.821Z,99142.72
2023-07-15T06:13:54.499Z,99113.91
2023-07-15T06:14:36.321Z,99140.50
2023-07-15T06:15:18.291Z,99122.72
2023-07-15T06:15:59.941Z,99141.84
2023-07-15T06:16:41.941Z,99138.84
2023-07-15T06:17:23.977Z,99143.97
2023-07-15T06:18:06.073Z,99137.22
2023-07-15T06:18:47.775Z,99129.66
2023-07-15T06:19:29.658Z,99139.03
2023-07-15T06:20:12.355Z,99144.09
2023-07-15T06:20:54.289Z,99136.00
2023-07-15T06:21:37.564Z,99144.03
2023-07-15T06:22:19.352Z,99121.34
2023-07-15T06:23:01.200Z,99140.16
2023-07-15T06:23:42.918Z,99114.81
2023-07-15T06:24:24.607Z,99088.63
2023-07-15T06:25:06.915Z,99111.44
2023-07-15T06:25:48.653Z,99131.06
2023-07-15T06:26:30.616Z,99135.28
2023-07-15T06:27:12.250Z,99128.75
2023-07-15T06:27:55.075Z,99128.38
2023-07-15T06:28:36.934Z,99113.75
2023-07-15T06:29:18.823Z,99110.25
2023-07-15T06:30:00.832Z,99112.03
2023-07-15T06:30:43.123Z,99116.81
2023-07-15T06:31:25.112Z,99113.03
2023-07-15T06:32:07.142Z,99102.72
2023-07-15T06:32:48.879Z,99105.59
2023-07-15T06:33:31.224Z,99110.63
2023-07-15T06:34:12.877Z,99125.13
2023-07-15T06:34:54.544Z,99116.94
2023-07-15T06:35:36.340Z,99116.56
2023-07-15T06:36:18.297Z,99119.41
2023-07-15T06:37:00.445Z,99105.81
2023-07-15T06:37:42.147Z,99121.06
2023-07-15T06:38:23.829Z,99079.00
2023-07-15T06:39:05.549Z,99095.84
2023-07-15T06:39:47.553Z,99112.44
2023-07-15T06:40:29.402Z,99118.44
2023-07-15T06:41:11.212Z,99105.97
2023-07-15T06:41:53.117Z,99096.78
2023-07-15T06:42:35.163Z,99105.97
2023-07-15T06:43:16.888Z,99119.31
2023-07-15T06:43:58.607Z,99110.56
2023-07-15T06:44:43.151Z,99097.09
2023-07-15T06:45:33.963Z,99109.75
2023-07-15T06:46:15.807Z,99106.56
2023-07-15T06:46:57.968Z,99080.75
2023-07-15T06:47:40.024Z,99094.69
2023-07-15T06:48:21.851Z,99105.00
2023-07-15T06:49:03.725Z,99120.19
2023-07-15T06:49:45.477Z,99114.41
2023-07-15T06:50:27.434Z,99111.56
2023-07-15T06:51:09.258Z,99104.47
2023-07-15T06:51:51.076Z,99130.16
2023-07-15T06:52:32.988Z,99116.41
2023-07-15T06:53:15.526Z,99113.19
2023-07-15T06:53:57.217Z,99118.41
2023-07-15T06:54:39.372Z,99106.47
2023-07-15T06:55:22.155Z,99106.16
2023-07-15T06:56:19.057Z,99114.19
2023-07-15T06:57:01.527Z,99124.88
2023-07-15T06:57:43.263Z,99102.31
2023-07-15T06:58:25.007Z,99112.56
2023-07-15T06:59:06.871Z,99125.91
2023-07-15T06:59:48.986Z,99119.72
2023-07-15T07:00:31.152Z,99120.13
2023-07-15T07:01:13.225Z,99117.50
2023-07-15T07:01:55.370Z,99102.44
2023-07-15T07:02:37.426Z,99096.19
2023-07-15T07:03:19.206Z,99109.72
2023-07-15T07:04:01.080Z,99057.50
2023-07-15T07:04:42.778Z,99108.53
2023-07-15T07:05:24.677Z,99112.78
2023-07-15T07:06:06.715Z,99105.31
2023-07-15T07:06:48.682Z,99092.06
2023-07-15T07:07:30.703Z,99109.25
2023-07-15T07:08:12.441Z,99095.41
2023-07-15T07:08:55.671Z,99116.00
2023-07-15T07:09:37.358Z,99113.78
2023-07-15T07:10:19.135Z,99110.91
2023-07-15T07:11:00.845Z,99111.41
2023-07-15T07:12:24.350Z,99118.13
2023-07-15T07:13:06.068Z,99112.00
2023-07-15T07:13:47.773Z,99125.34
2023-07-15T07:14:31.510Z,99128.53
2023-07-15T07:15:15.459Z,99129.66
2023-07-15T07:15:59.099Z,99135.00
2023-07-15T07:16:40.852Z,99133.69
2023-07-15T07:17:22.787Z,99110.41
2023-07-15T07:18:04.724Z,99115.09
2023-07-15T07:18:46.713Z,99129.13
2023-07-15T07:19:28.443Z,99140.06
2023-07-15T07:20:10.731Z,99136.88
2023-07-15T07:20:59.359Z,99140.09
2023-07-15T07:21:41.718Z,99139.63
2023-07-15T07:22:23.493Z,99134.34
2023-07-15T07:23:05.389Z,99106.91
2023-07-15T07:23:47.191Z,99128.78
2023-07-15T07:24:28.877Z,99101.75
2023-07-15T07:25:10.836Z,99129.75
2023-07-15T07:25:53.872Z,99119.63
2023-07-15T07:26:35.536Z,99114.16
2023-07-15T07:27:17.203Z,99135.19
2023-07-15T07:27:58.942Z,99124.09
2023-07-15T07:28:45.348Z,99114.00
2023-07-15T07:29:27.249Z,99098.63
2023-07-15T07:30:09.339Z,99126.66
2023-07-15T07:30:51.790Z,99126.19
2023-07-15T07:31:33.552Z,99133.44
2023-07-15T07:32:15.213Z,99108.25
2023-07-15T07:32:56.929Z,99129.91
2023-07-15T07:33:39.791Z,99131.97
2023-07-15T07:34:21.636Z,99135.19
2023-07-15T07:35:03.404Z,99106.44
2023-07-15T07:35:48.211Z,99118.19
2023-07-15T07:36:30.116Z,99112.06
2023-07-15T07:37:11.810Z,99115.91
2023-07-15T07:37:55.826Z,99112.06
2023-07-15T07:38:37.692Z,99122.66
2023-07-15T07:39:19.419Z,99117.03
2023-07-15T07:40:01.100Z,99121.50
2023-07-15T07:40:47.587Z,99113.97
2023-07-15T07:41:29.308Z,99126.03
2023-07-15T07:42:11.055Z,99124.44
2023-07-15T07:42:52.843Z,99132.63
2023-07-15T07:43:35.463Z,99131.97
2023-07-15T07:44:17.335Z,99114.94
2023-07-15T07:44:59.133Z,99131.00
2023-07-15T07:45:40.812Z,99135.00
2023-07-15T07:46:22.535Z,99125.69
2023-07-15T07:47:04.482Z,99131.00
2023-07-15T07:47:46.294Z,99111.41
2023-07-15T07:48:29.014Z,99126.53
2023-07-15T07:49:10.753Z,99114.97
2023-07-15T07:49:52.446Z,99106.47
2023-07-15T07:50:35.377Z,99114.97
2023-07-15T07:51:17.336Z,99123.47
2023-07-15T07:51:59.423Z,99129.88
2023-07-15T07:52:41.118Z,99120.28
2023-07-15T07:53:23.945Z,99114.66
2023-07-15T07:54:05.807Z,99110.78
2023-07-15T07:54:48.119Z,99128.13
2023-07-15T07:55:30.068Z,99087.50
2023-07-15T07:56:12.594Z,99124.28
2023-07-15T07:56:54.592Z,99106.78
2023-07-15T07:57:36.356Z,99118.81
2023-07-15T07:58:18.681Z,99118.63
2023-07-15T07:59:02.107Z,99109.69
2023-07-15T07:59:43.785Z,99101.00
2023-07-15T08:00:25.537Z,99109.97
2023-07-15T08:01:07.425Z,99129.72
2023-07-15T08:01:49.426Z,99110.94
2023-07-15T08:02:31.204Z,99130.84
2023-07-15T08:03:13.109Z,99136.13
2023-07-15T08:03:56.367Z,99132.13
2023-07-15T08:04:38.287Z,99131.13
2023-07-15T08:05:20.039Z,99120.41
2023-07-15T08:06:01.833Z,99123.25
2023-07-15T08:06:43.615Z,99130.81
2023-07-15T08:07:25.288Z,99133.22
2023-07-15T08:08:07.052Z,99128.88
2023-07-15T08:08:48.931Z,99128.28
2023-07-15T08:09:30.693Z,99121.69
2023-07-15T08:10:12.503Z,99126.47
2023-07-15T08:10:54.491Z,99109.97
2023-07-15T08:11:36.342Z,99130.81
2023-07-15T08:12:19.072Z,99132.09
2023-07-15T08:13:03.958Z,99138.88
2023-07-15T08:13:45.795Z,99113.50
2023-07-15T08:14:27.507Z,99101.94
2023-07-15T08:15:09.775Z,99133.22
2023-07-15T08:15:51.541Z,99129.88
2023-07-15T08:16:35.758Z,99127.28
2023-07-15T08:17:18.791Z,99127.47
2023-07-15T08:18:00.571Z,99110.09
2023-07-15T08:18:42.344Z,99122.28
2023-07-15T08:19:25.033Z,99121.63
2023-07-15T08:20:09.394Z,99126.44
2023-07-15T08:20:52.200Z,99112.78
2023-07-15T08:21:34.502Z,99110.06
2023-07-15T08:22:16.157Z,99124.66